sensor_id;sensor_type;location;lat;lon;timestamp;P1;durP1;ratioP1;P2;durP2;ratioP2
58768;SDS011;44536;47.474;19.056;2023-05-07T00:00:49;11.95;;;7.25;;
58768;SDS011;44536;47.474;19.056;2023-05-07T00:03:51;13.65;;;9.32;;
58768;SDS011;44536;47.474;19.056;2023-05-07T00:06:54;10.32;;;7.18;;
58768;SDS011;44536;47.474;19.056;2023-05-07T00:09:57;10.05;;;7.00;;
58768;SDS011;44536;47.474;19.056;2023-05-07T00:13:00;10.38;;;7.45;;
58768;SDS011;44536;47.474;19.056;2023-05-07T00:16:02;11.05;;;7.40;;
58768;SDS011;44536;47.474;19.056;2023-05-07T00:19:05;10.98;;;6.32;;
58768;SDS011;44536;47.474;19.056;2023-05-07T00:22:08;9.82;;;7.12;;
58768;SDS011;44536;47.474;19.056;2023-05-07T00:25:10;11.82;;;7.18;;
58768;SDS011;44536;47.474;19.056;2023-05-07T00:28:13;12.90;;;7.78;;
58768;SDS011;44536;47.474;19.056;2023-05-07T00:31:18;10.38;;;7.20;;
58768;SDS011;44536;47.474;19.056;2023-05-07T00:34:20;9.43;;;7.00;;
58768;SDS011;44536;47.474;19.056;2023-05-07T00:37:23;12.55;;;7.50;;
58768;SDS011;44536;47.474;19.056;2023-05-07T00:40:25;10.80;;;7.50;;
58768;SDS011;44536;47.474;19.056;2023-05-07T00:43:27;11.88;;;7.62;;
58768;SDS011;44536;47.474;19.056;2023-05-07T00:46:31;11.43;;;7.43;;
58768;SDS011;44536;47.474;19.056;2023-05-07T00:49:38;10.57;;;7.85;;
58768;SDS011;44536;47.474;19.056;2023-05-07T00:52:43;12.52;;;7.75;;
58768;SDS011;44536;47.474;19.056;2023-05-07T00:55:45;10.73;;;7.37;;
58768;SDS011;44536;47.474;19.056;2023-05-07T00:58:48;13.50;;;9.03;;
58768;SDS011;44536;47.474;19.056;2023-05-07T01:01:51;11.70;;;7.27;;
58768;SDS011;44536;47.474;19.056;2023-05-07T01:04:54;12.57;;;8.05;;
58768;SDS011;44536;47.474;19.056;2023-05-07T01:07:57;12.30;;;7.95;;
58768;SDS011;44536;47.474;19.056;2023-05-07T01:11:00;12.93;;;8.27;;
58768;SDS011;44536;47.474;19.056;2023-05-07T01:14:03;11.80;;;7.12;;
58768;SDS011;44536;47.474;19.056;2023-05-07T01:20:10;13.70;;;8.02;;
58768;SDS011;44536;47.474;19.056;2023-05-07T01:23:15;10.13;;;7.15;;
58768;SDS011;44536;47.474;19.056;2023-05-07T01:26:17;12.52;;;8.05;;
58768;SDS011;44536;47.474;19.056;2023-05-07T01:29:21;13.30;;;7.93;;
58768;SDS011;44536;47.474;19.056;2023-05-07T01:32:29;12.05;;;7.75;;
58768;SDS011;44536;47.474;19.056;2023-05-07T01:35:39;10.63;;;7.65;;
58768;SDS011;44536;47.474;19.056;2023-05-07T01:38:43;11.27;;;7.90;;
58768;SDS011;44536;47.474;19.056;2023-05-07T01:41:48;11.95;;;7.37;;
58768;SDS011;44536;47.474;19.056;2023-05-07T01:44:51;11.77;;;7.28;;
58768;SDS011;44536;47.474;19.056;2023-05-07T01:47:53;13.13;;;7.73;;
58768;SDS011;44536;47.474;19.056;2023-05-07T01:50:57;11.77;;;7.55;;
58768;SDS011;44536;47.474;19.056;2023-05-07T01:54:00;10.20;;;7.18;;
58768;SDS011;44536;47.474;19.056;2023-05-07T01:57:03;11.15;;;7.68;;
58768;SDS011;44536;47.474;19.056;2023-05-07T02:00:05;11.63;;;7.78;;
58768;SDS011;44536;47.474;19.056;2023-05-07T02:03:16;13.38;;;7.68;;
58768;SDS011;44536;47.474;19.056;2023-05-07T02:06:20;11.45;;;7.45;;
58768;SDS011;44536;47.474;19.056;2023-05-07T02:09:23;10.73;;;7.83;;
58768;SDS011;44536;47.474;19.056;2023-05-07T02:15:28;10.52;;;7.37;;
58768;SDS011;44536;47.474;19.056;2023-05-07T02:18:31;10.95;;;7.20;;
58768;SDS011;44536;47.474;19.056;2023-05-07T02:21:34;13.75;;;7.45;;
58768;SDS011;44536;47.474;19.056;2023-05-07T02:24:37;10.87;;;7.27;;
58768;SDS011;44536;47.474;19.056;2023-05-07T02:27:39;11.48;;;7.62;;
58768;SDS011;44536;47.474;19.056;2023-05-07T02:30:42;11.05;;;7.62;;
58768;SDS011;44536;47.474;19.056;2023-05-07T02:33:45;10.80;;;6.22;;
58768;SDS011;44536;47.474;19.056;2023-05-07T02:36:47;10.60;;;6.65;;
58768;SDS011;44536;47.474;19.056;2023-05-07T02:42:53;9.68;;;5.93;;
58768;SDS011;44536;47.474;19.056;2023-05-07T02:46:05;10.20;;;6.35;;
58768;SDS011;44536;47.474;19.056;2023-05-07T02:49:10;9.30;;;5.85;;
58768;SDS011;44536;47.474;19.056;2023-05-07T02:52:13;10.00;;;7.20;;
58768;SDS011;44536;47.474;19.056;2023-05-07T02:55:15;12.20;;;6.93;;
58768;SDS011;44536;47.474;19.056;2023-05-07T02:58:18;10.77;;;6.95;;
58768;SDS011;44536;47.474;19.056;2023-05-07T03:01:21;9.87;;;6.70;;
58768;SDS011;44536;47.474;19.056;2023-05-07T03:04:24;12.05;;;7.68;;
58768;SDS011;44536;47.474;19.056;2023-05-07T03:07:27;10.27;;;6.35;;
58768;SDS011;44536;47.474;19.056;2023-05-07T03:10:29;12.37;;;6.72;;
58768;SDS011;44536;47.474;19.056;2023-05-07T03:13:32;10.73;;;6.10;;
58768;SDS011;44536;47.474;19.056;2023-05-07T03:16:35;13.00;;;8.17;;
58768;SDS011;44536;47.474;19.056;2023-05-07T03:19:37;12.95;;;8.25;;
58768;SDS011;44536;47.474;19.056;2023-05-07T03:22:40;11.75;;;6.20;;
58768;SDS011;44536;47.474;19.056;2023-05-07T03:25:42;9.25;;;6.47;;
58768;SDS011;44536;47.474;19.056;2023-05-07T03:28:45;10.63;;;6.78;;
58768;SDS011;44536;47.474;19.056;2023-05-07T03:31:47;13.57;;;6.50;;
58768;SDS011;44536;47.474;19.056;2023-05-07T03:34:50;8.87;;;5.00;;
58768;SDS011;44536;47.474;19.056;2023-05-07T03:37:52;8.23;;;4.87;;
58768;SDS011;44536;47.474;19.056;2023-05-07T03:44:01;8.32;;;4.65;;
58768;SDS011;44536;47.474;19.056;2023-05-07T03:47:04;9.95;;;5.07;;
58768;SDS011;44536;47.474;19.056;2023-05-07T03:50:07;9.07;;;4.50;;
58768;SDS011;44536;47.474;19.056;2023-05-07T03:53:10;9.57;;;5.55;;
58768;SDS011;44536;47.474;19.056;2023-05-07T03:56:13;9.07;;;5.37;;
58768;SDS011;44536;47.474;19.056;2023-05-07T03:59:15;9.70;;;5.50;;
58768;SDS011;44536;47.474;19.056;2023-05-07T04:02:18;9.75;;;5.53;;
58768;SDS011;44536;47.474;19.056;2023-05-07T04:05:21;9.43;;;5.93;;
58768;SDS011;44536;47.474;19.056;2023-05-07T04:08:24;8.00;;;4.50;;
58768;SDS011;44536;47.474;19.056;2023-05-07T04:11:27;8.02;;;4.82;;
58768;SDS011;44536;47.474;19.056;2023-05-07T04:14:29;9.73;;;6.75;;
58768;SDS011;44536;47.474;19.056;2023-05-07T04:17:35;9.50;;;5.45;;
58768;SDS011;44536;47.474;19.056;2023-05-07T04:20:37;8.63;;;6.20;;
58768;SDS011;44536;47.474;19.056;2023-05-07T04:26:43;9.23;;;5.90;;
58768;SDS011;44536;47.474;19.056;2023-05-07T04:29:46;10.20;;;6.10;;
58768;SDS011;44536;47.474;19.056;2023-05-07T04:35:52;13.13;;;7.70;;
58768;SDS011;44536;47.474;19.056;2023-05-07T04:38:55;20.58;;;7.30;;
58768;SDS011;44536;47.474;19.056;2023-05-07T04:41:58;11.97;;;7.03;;
58768;SDS011;44536;47.474;19.056;2023-05-07T04:45:00;11.20;;;6.97;;
58768;SDS011;44536;47.474;19.056;2023-05-07T04:48:04;9.43;;;5.70;;
58768;SDS011;44536;47.474;19.056;2023-05-07T04:51:08;12.30;;;6.97;;
58768;SDS011;44536;47.474;19.056;2023-05-07T04:54:10;11.40;;;7.57;;
58768;SDS011;44536;47.474;19.056;2023-05-07T04:57:13;10.70;;;6.90;;
58768;SDS011;44536;47.474;19.056;2023-05-07T05:00:16;11.60;;;7.00;;
58768;SDS011;44536;47.474;19.056;2023-05-07T05:03:21;9.50;;;6.28;;
58768;SDS011;44536;47.474;19.056;2023-05-07T05:09:28;10.13;;;6.33;;
58768;SDS011;44536;47.474;19.056;2023-05-07T05:12:31;10.57;;;6.60;;
58768;SDS011;44536;47.474;19.056;2023-05-07T05:15:34;8.98;;;6.03;;
58768;SDS011;44536;47.474;19.056;2023-05-07T05:18:37;9.88;;;6.12;;
58768;SDS011;44536;47.474;19.056;2023-05-07T05:21:40;13.75;;;6.35;;
58768;SDS011;44536;47.474;19.056;2023-05-07T05:24:43;10.53;;;6.07;;
58768;SDS011;44536;47.474;19.056;2023-05-07T05:27:45;9.75;;;7.20;;
58768;SDS011;44536;47.474;19.056;2023-05-07T05:30:48;10.00;;;5.93;;
58768;SDS011;44536;47.474;19.056;2023-05-07T05:33:51;10.48;;;5.50;;
58768;SDS011;44536;47.474;19.056;2023-05-07T05:36:54;8.97;;;5.07;;
58768;SDS011;44536;47.474;19.056;2023-05-07T05:39:57;7.68;;;4.47;;
58768;SDS011;44536;47.474;19.056;2023-05-07T05:43:00;9.45;;;5.80;;
58768;SDS011;44536;47.474;19.056;2023-05-07T05:46:02;8.30;;;5.77;;
58768;SDS011;44536;47.474;19.056;2023-05-07T05:49:07;8.38;;;5.30;;
58768;SDS011;44536;47.474;19.056;2023-05-07T05:52:11;9.52;;;6.07;;
58768;SDS011;44536;47.474;19.056;2023-05-07T05:55:16;13.93;;;7.07;;
58768;SDS011;44536;47.474;19.056;2023-05-07T05:58:18;9.00;;;6.43;;
58768;SDS011;44536;47.474;19.056;2023-05-07T06:01:23;8.82;;;5.43;;
58768;SDS011;44536;47.474;19.056;2023-05-07T06:07:29;9.02;;;5.40;;
58768;SDS011;44536;47.474;19.056;2023-05-07T06:10:31;8.68;;;5.82;;
58768;SDS011;44536;47.474;19.056;2023-05-07T06:13:34;8.90;;;5.80;;
58768;SDS011;44536;47.474;19.056;2023-05-07T06:19:40;10.65;;;6.50;;
58768;SDS011;44536;47.474;19.056;2023-05-07T06:22:43;7.78;;;5.00;;
58768;SDS011;44536;47.474;19.056;2023-05-07T06:25:49;7.62;;;5.62;;
58768;SDS011;44536;47.474;19.056;2023-05-07T06:28:53;6.70;;;5.03;;
58768;SDS011;44536;47.474;19.056;2023-05-07T06:31:55;7.47;;;4.95;;
58768;SDS011;44536;47.474;19.056;2023-05-07T06:38:00;8.70;;;5.15;;
58768;SDS011;44536;47.474;19.056;2023-05-07T06:41:05;8.77;;;5.65;;
58768;SDS011;44536;47.474;19.056;2023-05-07T06:44:08;7.75;;;5.65;;
58768;SDS011;44536;47.474;19.056;2023-05-07T06:47:11;6.62;;;4.70;;
58768;SDS011;44536;47.474;19.056;2023-05-07T06:50:18;9.52;;;5.22;;
58768;SDS011;44536;47.474;19.056;2023-05-07T06:53:21;8.35;;;5.03;;
58768;SDS011;44536;47.474;19.056;2023-05-07T06:59:27;11.75;;;6.12;;
58768;SDS011;44536;47.474;19.056;2023-05-07T07:02:29;7.68;;;4.62;;
58768;SDS011;44536;47.474;19.056;2023-05-07T07:05:32;6.68;;;4.07;;
58768;SDS011;44536;47.474;19.056;2023-05-07T07:08:36;7.40;;;3.67;;
58768;SDS011;44536;47.474;19.056;2023-05-07T07:11:41;7.68;;;3.75;;
58768;SDS011;44536;47.474;19.056;2023-05-07T07:14:43;6.35;;;3.87;;
58768;SDS011;44536;47.474;19.056;2023-05-07T07:17:47;5.97;;;3.35;;
58768;SDS011;44536;47.474;19.056;2023-05-07T07:20:50;8.25;;;4.03;;
58768;SDS011;44536;47.474;19.056;2023-05-07T07:23:53;7.22;;;3.67;;
58768;SDS011;44536;47.474;19.056;2023-05-07T07:26:55;6.10;;;3.60;;
58768;SDS011;44536;47.474;19.056;2023-05-07T07:33:01;7.15;;;3.90;;
58768;SDS011;44536;47.474;19.056;2023-05-07T07:36:06;5.40;;;3.25;;
58768;SDS011;44536;47.474;19.056;2023-05-07T07:39:09;6.72;;;3.70;;
58768;SDS011;44536;47.474;19.056;2023-05-07T07:42:11;6.50;;;3.40;;
58768;SDS011;44536;47.474;19.056;2023-05-07T07:45:14;6.60;;;3.70;;
58768;SDS011;44536;47.474;19.056;2023-05-07T07:48:17;6.95;;;3.55;;
58768;SDS011;44536;47.474;19.056;2023-05-07T07:51:20;6.43;;;3.33;;
58768;SDS011;44536;47.474;19.056;2023-05-07T07:54:23;6.55;;;3.60;;
58768;SDS011;44536;47.474;19.056;2023-05-07T07:57:26;4.93;;;2.50;;
58768;SDS011;44536;47.474;19.056;2023-05-07T08:00:29;4.62;;;2.15;;
58768;SDS011;44536;47.474;19.056;2023-05-07T08:03:31;5.80;;;2.90;;
58768;SDS011;44536;47.474;19.056;2023-05-07T08:06:35;5.60;;;2.87;;
58768;SDS011;44536;47.474;19.056;2023-05-07T08:09:38;5.25;;;2.50;;
58768;SDS011;44536;47.474;19.056;2023-05-07T08:15:43;4.70;;;2.40;;
58768;SDS011;44536;47.474;19.056;2023-05-07T08:18:46;6.68;;;2.45;;
58768;SDS011;44536;47.474;19.056;2023-05-07T08:21:48;5.18;;;2.62;;
58768;SDS011;44536;47.474;19.056;2023-05-07T08:24:51;6.00;;;2.92;;
58768;SDS011;44536;47.474;19.056;2023-05-07T08:27:56;5.43;;;2.60;;
58768;SDS011;44536;47.474;19.056;2023-05-07T08:30:58;7.12;;;4.35;;
58768;SDS011;44536;47.474;19.056;2023-05-07T08:34:04;6.75;;;3.50;;
58768;SDS011;44536;47.474;19.056;2023-05-07T08:37:10;7.93;;;3.83;;
58768;SDS011;44536;47.474;19.056;2023-05-07T08:40:13;6.97;;;3.77;;
58768;SDS011;44536;47.474;19.056;2023-05-07T08:43:16;18.73;;;5.35;;
58768;SDS011;44536;47.474;19.056;2023-05-07T08:46:21;9.07;;;5.12;;
58768;SDS011;44536;47.474;19.056;2023-05-07T08:49:25;9.40;;;5.00;;
58768;SDS011;44536;47.474;19.056;2023-05-07T08:52:28;7.60;;;4.70;;
58768;SDS011;44536;47.474;19.056;2023-05-07T08:55:31;7.47;;;4.70;;
58768;SDS011;44536;47.474;19.056;2023-05-07T08:58:35;10.20;;;6.07;;
58768;SDS011;44536;47.474;19.056;2023-05-07T09:04:41;9.70;;;5.93;;
58768;SDS011;44536;47.474;19.056;2023-05-07T09:07:44;10.20;;;4.73;;
58768;SDS011;44536;47.474;19.056;2023-05-07T09:10:48;9.13;;;5.50;;
58768;SDS011;44536;47.474;19.056;2023-05-07T09:13:54;8.93;;;4.90;;
58768;SDS011;44536;47.474;19.056;2023-05-07T09:16:58;10.48;;;5.57;;
58768;SDS011;44536;47.474;19.056;2023-05-07T09:20:04;10.60;;;5.80;;
58768;SDS011;44536;47.474;19.056;2023-05-07T09:23:11;9.40;;;5.65;;
58768;SDS011;44536;47.474;19.056;2023-05-07T09:26:14;8.03;;;5.37;;
58768;SDS011;44536;47.474;19.056;2023-05-07T09:29:16;9.63;;;5.25;;
58768;SDS011;44536;47.474;19.056;2023-05-07T09:32:20;7.85;;;4.60;;
58768;SDS011;44536;47.474;19.056;2023-05-07T09:35:22;6.47;;;4.35;;
58768;SDS011;44536;47.474;19.056;2023-05-07T09:38:29;9.73;;;5.30;;
58768;SDS011;44536;47.474;19.056;2023-05-07T09:41:32;8.93;;;5.62;;
58768;SDS011;44536;47.474;19.056;2023-05-07T09:44:35;7.15;;;4.47;;
58768;SDS011;44536;47.474;19.056;2023-05-07T09:47:39;8.35;;;4.12;;
58768;SDS011;44536;47.474;19.056;2023-05-07T09:50:48;7.10;;;4.65;;
58768;SDS011;44536;47.474;19.056;2023-05-07T09:53:54;6.85;;;4.60;;
58768;SDS011;44536;47.474;19.056;2023-05-07T09:56:59;7.43;;;4.62;;
58768;SDS011;44536;47.474;19.056;2023-05-07T10:00:05;7.32;;;4.37;;
58768;SDS011;44536;47.474;19.056;2023-05-07T10:03:21;6.45;;;4.07;;
58768;SDS011;44536;47.474;19.056;2023-05-07T10:06:25;6.22;;;4.00;;
58768;SDS011;44536;47.474;19.056;2023-05-07T10:09:28;7.28;;;3.78;;
58768;SDS011;44536;47.474;19.056;2023-05-07T10:12:32;6.72;;;3.87;;
58768;SDS011;44536;47.474;19.056;2023-05-07T10:15:41;6.60;;;3.85;;
58768;SDS011;44536;47.474;19.056;2023-05-07T10:18:45;8.43;;;4.20;;
58768;SDS011;44536;47.474;19.056;2023-05-07T10:21:56;7.45;;;4.62;;
58768;SDS011;44536;47.474;19.056;2023-05-07T10:25:05;6.40;;;3.53;;
58768;SDS011;44536;47.474;19.056;2023-05-07T10:28:11;7.00;;;4.32;;
58768;SDS011;44536;47.474;19.056;2023-05-07T10:34:35;6.78;;;4.25;;
58768;SDS011;44536;47.474;19.056;2023-05-07T10:37:40;7.40;;;4.45;;
58768;SDS011;44536;47.474;19.056;2023-05-07T10:40:43;8.60;;;4.32;;
58768;SDS011;44536;47.474;19.056;2023-05-07T10:43:50;8.75;;;4.70;;
58768;SDS011;44536;47.474;19.056;2023-05-07T10:47:12;6.82;;;4.43;;
58768;SDS011;44536;47.474;19.056;2023-05-07T10:53:23;6.72;;;4.15;;
58768;SDS011;44536;47.474;19.056;2023-05-07T10:56:30;6.97;;;4.47;;
58768;SDS011;44536;47.474;19.056;2023-05-07T10:59:35;7.87;;;5.18;;
58768;SDS011;44536;47.474;19.056;2023-05-07T11:06:11;8.52;;;4.03;;
58768;SDS011;44536;47.474;19.056;2023-05-07T11:09:15;8.88;;;4.55;;
58768;SDS011;44536;47.474;19.056;2023-05-07T11:15:44;9.57;;;4.20;;
58768;SDS011;44536;47.474;19.056;2023-05-07T11:18:49;9.18;;;4.82;;
58768;SDS011;44536;47.474;19.056;2023-05-07T11:21:54;5.90;;;3.95;;
58768;SDS011;44536;47.474;19.056;2023-05-07T11:25:04;7.32;;;4.75;;
58768;SDS011;44536;47.474;19.056;2023-05-07T11:28:08;7.78;;;4.95;;
58768;SDS011;44536;47.474;19.056;2023-05-07T11:31:13;6.97;;;4.70;;
58768;SDS011;44536;47.474;19.056;2023-05-07T11:34:20;6.22;;;3.72;;
58768;SDS011;44536;47.474;19.056;2023-05-07T11:37:24;6.00;;;3.85;;
58768;SDS011;44536;47.474;19.056;2023-05-07T11:40:30;6.03;;;3.78;;
58768;SDS011;44536;47.474;19.056;2023-05-07T11:43:32;6.43;;;4.10;;
58768;SDS011;44536;47.474;19.056;2023-05-07T11:46:35;6.28;;;4.10;;
58768;SDS011;44536;47.474;19.056;2023-05-07T11:49:37;8.03;;;4.40;;
58768;SDS011;44536;47.474;19.056;2023-05-07T11:52:40;7.25;;;4.05;;
58768;SDS011;44536;47.474;19.056;2023-05-07T11:55:56;6.37;;;3.67;;
58768;SDS011;44536;47.474;19.056;2023-05-07T11:58:59;10.07;;;3.87;;
58768;SDS011;44536;47.474;19.056;2023-05-07T12:02:01;5.85;;;3.58;;
58768;SDS011;44536;47.474;19.056;2023-05-07T12:05:04;12.23;;;4.20;;
58768;SDS011;44536;47.474;19.056;2023-05-07T12:08:06;6.85;;;3.95;;
58768;SDS011;44536;47.474;19.056;2023-05-07T12:11:11;5.97;;;3.87;;
58768;SDS011;44536;47.474;19.056;2023-05-07T12:14:15;6.87;;;3.92;;
58768;SDS011;44536;47.474;19.056;2023-05-07T12:17:18;6.80;;;3.97;;
58768;SDS011;44536;47.474;19.056;2023-05-07T12:20:20;6.47;;;4.00;;
58768;SDS011;44536;47.474;19.056;2023-05-07T12:23:23;5.97;;;3.35;;
58768;SDS011;44536;47.474;19.056;2023-05-07T12:26:25;5.95;;;3.80;;
58768;SDS011;44536;47.474;19.056;2023-05-07T12:29:28;6.35;;;3.50;;
58768;SDS011;44536;47.474;19.056;2023-05-07T12:35:42;5.37;;;3.42;;
58768;SDS011;44536;47.474;19.056;2023-05-07T12:38:45;5.70;;;3.70;;
58768;SDS011;44536;47.474;19.056;2023-05-07T12:41:52;7.03;;;4.78;;
58768;SDS011;44536;47.474;19.056;2023-05-07T12:44:57;7.03;;;3.53;;
58768;SDS011;44536;47.474;19.056;2023-05-07T12:48:01;6.78;;;4.00;;
58768;SDS011;44536;47.474;19.056;2023-05-07T12:51:05;7.75;;;4.18;;
58768;SDS011;44536;47.474;19.056;2023-05-07T12:54:09;6.32;;;4.20;;
58768;SDS011;44536;47.474;19.056;2023-05-07T12:57:11;5.77;;;3.57;;
58768;SDS011;44536;47.474;19.056;2023-05-07T13:00:14;5.87;;;3.25;;
58768;SDS011;44536;47.474;19.056;2023-05-07T13:06:30;7.60;;;3.45;;
58768;SDS011;44536;47.474;19.056;2023-05-07T13:09:33;7.93;;;3.17;;
58768;SDS011;44536;47.474;19.056;2023-05-07T13:12:35;5.50;;;3.30;;
58768;SDS011;44536;47.474;19.056;2023-05-07T13:15:38;6.00;;;3.00;;
58768;SDS011;44536;47.474;19.056;2023-05-07T13:18:40;5.97;;;3.62;;
58768;SDS011;44536;47.474;19.056;2023-05-07T13:21:45;5.97;;;3.12;;
58768;SDS011;44536;47.474;19.056;2023-05-07T13:24:48;5.18;;;3.10;;
58768;SDS011;44536;47.474;19.056;2023-05-07T13:27:50;6.15;;;3.65;;
58768;SDS011;44536;47.474;19.056;2023-05-07T13:31:11;6.28;;;3.53;;
58768;SDS011;44536;47.474;19.056;2023-05-07T13:34:13;6.43;;;3.40;;
58768;SDS011;44536;47.474;19.056;2023-05-07T13:37:15;6.65;;;3.35;;
58768;SDS011;44536;47.474;19.056;2023-05-07T13:40:18;6.10;;;3.45;;
58768;SDS011;44536;47.474;19.056;2023-05-07T13:43:21;8.52;;;4.50;;
58768;SDS011;44536;47.474;19.056;2023-05-07T13:46:23;5.43;;;3.33;;
58768;SDS011;44536;47.474;19.056;2023-05-07T13:49:26;5.57;;;2.80;;
58768;SDS011;44536;47.474;19.056;2023-05-07T13:52:28;5.68;;;3.10;;
58768;SDS011;44536;47.474;19.056;2023-05-07T13:55:31;5.97;;;3.73;;
58768;SDS011;44536;47.474;19.056;2023-05-07T13:58:36;6.15;;;3.62;;
58768;SDS011;44536;47.474;19.056;2023-05-07T14:01:46;6.10;;;3.60;;
58768;SDS011;44536;47.474;19.056;2023-05-07T14:04:49;6.90;;;3.87;;
58768;SDS011;44536;47.474;19.056;2023-05-07T14:07:51;8.73;;;4.45;;
58768;SDS011;44536;47.474;19.056;2023-05-07T14:13:56;6.25;;;3.35;;
58768;SDS011;44536;47.474;19.056;2023-05-07T14:17:00;6.57;;;4.05;;
58768;SDS011;44536;47.474;19.056;2023-05-07T14:20:03;5.82;;;3.58;;
58768;SDS011;44536;47.474;19.056;2023-05-07T14:23:06;6.22;;;3.33;;
58768;SDS011;44536;47.474;19.056;2023-05-07T14:26:08;8.30;;;3.58;;
58768;SDS011;44536;47.474;19.056;2023-05-07T14:29:11;6.47;;;3.37;;
58768;SDS011;44536;47.474;19.056;2023-05-07T14:32:13;7.15;;;3.22;;
58768;SDS011;44536;47.474;19.056;2023-05-07T14:35:16;7.70;;;4.22;;
58768;SDS011;44536;47.474;19.056;2023-05-07T14:38:18;6.87;;;3.72;;
58768;SDS011;44536;47.474;19.056;2023-05-07T14:41:21;6.73;;;3.80;;
58768;SDS011;44536;47.474;19.056;2023-05-07T14:44:23;6.75;;;3.58;;
58768;SDS011;44536;47.474;19.056;2023-05-07T14:47:27;6.93;;;3.65;;
58768;SDS011;44536;47.474;19.056;2023-05-07T14:50:30;6.30;;;3.83;;
58768;SDS011;44536;47.474;19.056;2023-05-07T14:53:32;7.15;;;4.18;;
58768;SDS011;44536;47.474;19.056;2023-05-07T14:56:34;7.60;;;4.60;;
58768;SDS011;44536;47.474;19.056;2023-05-07T14:59:37;7.53;;;4.35;;
58768;SDS011;44536;47.474;19.056;2023-05-07T15:02:40;9.90;;;7.07;;
58768;SDS011;44536;47.474;19.056;2023-05-07T15:05:42;8.05;;;4.95;;
58768;SDS011;44536;47.474;19.056;2023-05-07T15:08:45;8.33;;;4.23;;
58768;SDS011;44536;47.474;19.056;2023-05-07T15:11:47;8.93;;;5.35;;
58768;SDS011;44536;47.474;19.056;2023-05-07T15:14:49;8.18;;;4.32;;
58768;SDS011;44536;47.474;19.056;2023-05-07T15:17:52;7.85;;;4.37;;
58768;SDS011;44536;47.474;19.056;2023-05-07T15:20:55;7.10;;;4.32;;
58768;SDS011;44536;47.474;19.056;2023-05-07T15:23:58;7.93;;;4.35;;
58768;SDS011;44536;47.474;19.056;2023-05-07T15:27:01;9.27;;;5.23;;
58768;SDS011;44536;47.474;19.056;2023-05-07T15:30:05;11.50;;;4.68;;
58768;SDS011;44536;47.474;19.056;2023-05-07T15:33:08;8.23;;;5.47;;
58768;SDS011;44536;47.474;19.056;2023-05-07T15:36:10;7.68;;;4.93;;
58768;SDS011;44536;47.474;19.056;2023-05-07T15:39:12;7.75;;;4.45;;
58768;SDS011;44536;47.474;19.056;2023-05-07T15:42:15;6.53;;;3.70;;
58768;SDS011;44536;47.474;19.056;2023-05-07T15:45:19;7.57;;;4.15;;
58768;SDS011;44536;47.474;19.056;2023-05-07T15:48:22;7.50;;;4.17;;
58768;SDS011;44536;47.474;19.056;2023-05-07T15:51:24;7.07;;;4.18;;
58768;SDS011;44536;47.474;19.056;2023-05-07T15:54:26;7.03;;;3.70;;
58768;SDS011;44536;47.474;19.056;2023-05-07T15:57:28;6.95;;;3.42;;
58768;SDS011;44536;47.474;19.056;2023-05-07T16:00:31;5.97;;;3.20;;
58768;SDS011;44536;47.474;19.056;2023-05-07T16:03:34;5.67;;;2.93;;
58768;SDS011;44536;47.474;19.056;2023-05-07T16:06:36;6.13;;;3.23;;
58768;SDS011;44536;47.474;19.056;2023-05-07T16:09:39;5.80;;;2.90;;
58768;SDS011;44536;47.474;19.056;2023-05-07T16:12:41;6.20;;;2.92;;
58768;SDS011;44536;47.474;19.056;2023-05-07T16:15:44;5.18;;;2.45;;
58768;SDS011;44536;47.474;19.056;2023-05-07T16:18:47;8.40;;;3.50;;
58768;SDS011;44536;47.474;19.056;2023-05-07T16:21:49;7.83;;;2.90;;
58768;SDS011;44536;47.474;19.056;2023-05-07T16:24:51;5.72;;;2.90;;
58768;SDS011;44536;47.474;19.056;2023-05-07T16:27:54;5.60;;;2.67;;
58768;SDS011;44536;47.474;19.056;2023-05-07T16:30:57;5.10;;;2.00;;
58768;SDS011;44536;47.474;19.056;2023-05-07T16:33:59;5.62;;;2.60;;
58768;SDS011;44536;47.474;19.056;2023-05-07T16:37:02;6.72;;;3.00;;
58768;SDS011;44536;47.474;19.056;2023-05-07T16:40:06;6.00;;;2.55;;
58768;SDS011;44536;47.474;19.056;2023-05-07T16:43:09;5.45;;;2.35;;
58768;SDS011;44536;47.474;19.056;2023-05-07T16:46:12;5.18;;;2.40;;
58768;SDS011;44536;47.474;19.056;2023-05-07T16:49:15;4.37;;;2.10;;
58768;SDS011;44536;47.474;19.056;2023-05-07T16:52:17;4.93;;;2.27;;
58768;SDS011;44536;47.474;19.056;2023-05-07T16:55:19;5.10;;;2.30;;
58768;SDS011;44536;47.474;19.056;2023-05-07T16:58:23;4.85;;;2.00;;
58768;SDS011;44536;47.474;19.056;2023-05-07T17:01:26;4.72;;;2.47;;
58768;SDS011;44536;47.474;19.056;2023-05-07T17:04:28;5.45;;;2.20;;
58768;SDS011;44536;47.474;19.056;2023-05-07T17:07:32;6.95;;;2.62;;
58768;SDS011;44536;47.474;19.056;2023-05-07T17:10:35;5.22;;;2.30;;
58768;SDS011;44536;47.474;19.056;2023-05-07T17:13:37;5.37;;;2.45;;
58768;SDS011;44536;47.474;19.056;2023-05-07T17:16:39;6.27;;;2.57;;
58768;SDS011;44536;47.474;19.056;2023-05-07T17:19:42;5.00;;;2.08;;
58768;SDS011;44536;47.474;19.056;2023-05-07T17:22:45;5.65;;;2.75;;
58768;SDS011;44536;47.474;19.056;2023-05-07T17:25:47;5.32;;;3.05;;
58768;SDS011;44536;47.474;19.056;2023-05-07T17:28:50;5.03;;;2.70;;
58768;SDS011;44536;47.474;19.056;2023-05-07T17:31:52;6.80;;;2.60;;
58768;SDS011;44536;47.474;19.056;2023-05-07T17:34:55;9.77;;;3.67;;
58768;SDS011;44536;47.474;19.056;2023-05-07T17:37:58;5.25;;;2.80;;
58768;SDS011;44536;47.474;19.056;2023-05-07T17:41:03;7.55;;;3.03;;
58768;SDS011;44536;47.474;19.056;2023-05-07T17:44:05;6.10;;;2.90;;
58768;SDS011;44536;47.474;19.056;2023-05-07T17:47:08;5.03;;;2.37;;
58768;SDS011;44536;47.474;19.056;2023-05-07T17:50:12;6.07;;;2.65;;
58768;SDS011;44536;47.474;19.056;2023-05-07T17:53:15;5.05;;;3.12;;
58768;SDS011;44536;47.474;19.056;2023-05-07T17:56:17;5.25;;;2.45;;
58768;SDS011;44536;47.474;19.056;2023-05-07T17:59:19;5.03;;;2.40;;
58768;SDS011;44536;47.474;19.056;2023-05-07T18:02:22;4.93;;;2.40;;
58768;SDS011;44536;47.474;19.056;2023-05-07T18:05:25;6.57;;;2.90;;
58768;SDS011;44536;47.474;19.056;2023-05-07T18:08:27;7.82;;;3.00;;
58768;SDS011;44536;47.474;19.056;2023-05-07T18:11:30;4.73;;;2.50;;
58768;SDS011;44536;47.474;19.056;2023-05-07T18:14:34;5.97;;;3.08;;
58768;SDS011;44536;47.474;19.056;2023-05-07T18:17:37;4.30;;;2.13;;
58768;SDS011;44536;47.474;19.056;2023-05-07T18:20:39;5.50;;;2.47;;
58768;SDS011;44536;47.474;19.056;2023-05-07T18:23:41;5.00;;;2.80;;
58768;SDS011;44536;47.474;19.056;2023-05-07T18:26:44;6.72;;;2.87;;
58768;SDS011;44536;47.474;19.056;2023-05-07T18:29:47;6.03;;;3.35;;
58768;SDS011;44536;47.474;19.056;2023-05-07T18:32:50;5.60;;;3.03;;
58768;SDS011;44536;47.474;19.056;2023-05-07T18:35:53;8.32;;;3.37;;
58768;SDS011;44536;47.474;19.056;2023-05-07T18:38:55;6.93;;;2.87;;
58768;SDS011;44536;47.474;19.056;2023-05-07T18:41:58;6.43;;;3.50;;
58768;SDS011;44536;47.474;19.056;2023-05-07T18:45:00;6.25;;;3.20;;
58768;SDS011;44536;47.474;19.056;2023-05-07T18:48:03;6.93;;;4.18;;
58768;SDS011;44536;47.474;19.056;2023-05-07T18:51:07;6.30;;;3.20;;
58768;SDS011;44536;47.474;19.056;2023-05-07T18:54:14;8.07;;;4.15;;
58768;SDS011;44536;47.474;19.056;2023-05-07T18:57:16;7.33;;;4.60;;
58768;SDS011;44536;47.474;19.056;2023-05-07T19:00:19;7.85;;;4.18;;
58768;SDS011;44536;47.474;19.056;2023-05-07T19:03:21;6.80;;;3.83;;
58768;SDS011;44536;47.474;19.056;2023-05-07T19:06:24;7.03;;;3.78;;
58768;SDS011;44536;47.474;19.056;2023-05-07T19:09:27;8.10;;;4.30;;